This is the latest recevied weather packets stored in our database for station/object WX5II-11. If no packets are shown the sender has not sent any weather packets the latest 10 day(s).
| Time | Temp. | Humidity | Pressure | Rain* | Wind** | Luminosity | Snow |
|---|---|---|---|---|---|---|---|
| 1788331330 | 27.22° C | 76% | 1005.7 hPa | 0 mm | - | - | - |
| 1788330729 | 27.22° C | 75% | 1005.7 hPa | 0 mm | - | - | - |
| 1788330129 | 27.22° C | 75% | 1005.7 hPa | 0 mm | - | - | - |
| 1788326526 | 27.78° C | 72% | 1005.7 hPa | 0 mm | - | - | - |
| 1788321121 | 28.89° C | 66% | 1005.7 hPa | 0 mm | - | - | - |
| 1788319922 | 28.89° C | 64% | 1005.4 hPa | 0 mm | - | - | - |
| 1788319321 | 29.44° C | 63% | 1005.4 hPa | 0 mm | - | - | - |
| 1788318718 | 29.44° C | 62% | 1005 hPa | 0 mm | - | - | - |
| 1788318120 | 29.44° C | 61% | 1005 hPa | 0 mm | - | - | - |
| 1788276680 | 32.22° C | 58% | 1007.1 hPa | 0 mm | - | - | - |
| 1788264668 | 23.89° C | 82% | 1006.4 hPa | 0 mm | - | - | - |
| 1788261066 | 24.44° C | 82% | 1006 hPa | 0 mm | - | - | - |
| 1788259863 | 25° C | 83% | 1006 hPa | 0 mm | - | - | - |
| 1788258063 | 25° C | 82% | 1006 hPa | 0 mm | - | - | - |
| 1788257462 | 25° C | 81% | 1006 hPa | 0 mm | - | - | - |
| 1788254458 | 25° C | 81% | 1006 hPa | 0 mm | - | - | - |
| 1788251455 | 25.56° C | 80% | 1006 hPa | 0 mm | - | - | - |
| 1788247852 | 26.11° C | 79% | 1006 hPa | 0 mm | - | - | - |
| 1788246651 | 26.11° C | 79% | 1006.4 hPa | 0 mm | - | - | - |
| 1788246049 | 26.67° C | 79% | 1006.7 hPa | 0 mm | - | - | - |
| 1788245449 | 26.67° C | 79% | 1006.4 hPa | 0 mm | - | - | - |
| 1788242447 | 27.22° C | 77% | 1006 hPa | 0 mm | - | - | - |
| 1788241246 | 27.22° C | 77% | 1006 hPa | 0 mm | - | - | - |
| 1788240645 | 27.22° C | 76% | 1006 hPa | 0 mm | - | - | - |
| 1788234638 | 28.33° C | 73% | 1006.4 hPa | 0 mm | - | - | - |
* Rain latest hour (hover to see other rain measurements)
** Current wind speed in m/s (hover to see current wind gust speed)